sensor_id;sensor_type;location;lat;lon;timestamp;P1;durP1;ratioP1;P2;durP2;ratioP2
54953;SDS011;40855;51.072;5.402;2023-03-23T00:01:07;5.28;;;1.95;;
54953;SDS011;40855;51.072;5.402;2023-03-23T00:03:35;3.75;;;2.20;;
54953;SDS011;40855;51.072;5.402;2023-03-23T00:06:02;2.10;;;1.80;;
54953;SDS011;40855;51.072;5.402;2023-03-23T00:08:30;4.75;;;1.90;;
54953;SDS011;40855;51.072;5.402;2023-03-23T00:10:57;3.75;;;2.17;;
54953;SDS011;40855;51.072;5.402;2023-03-23T00:13:23;4.05;;;2.33;;
54953;SDS011;40855;51.072;5.402;2023-03-23T00:15:49;3.08;;;2.13;;
54953;SDS011;40855;51.072;5.402;2023-03-23T00:18:16;4.18;;;2.50;;
54953;SDS011;40855;51.072;5.402;2023-03-23T00:20:50;6.55;;;2.35;;
54953;SDS011;40855;51.072;5.402;2023-03-23T00:23:21;6.10;;;2.40;;
54953;SDS011;40855;51.072;5.402;2023-03-23T00:25:54;3.25;;;2.00;;
54953;SDS011;40855;51.072;5.402;2023-03-23T00:28:24;2.88;;;2.30;;
54953;SDS011;40855;51.072;5.402;2023-03-23T00:31:04;11.93;;;2.05;;
54953;SDS011;40855;51.072;5.402;2023-03-23T00:33:33;3.60;;;2.05;;
54953;SDS011;40855;51.072;5.402;2023-03-23T00:36:06;7.80;;;2.78;;
54953;SDS011;40855;51.072;5.402;2023-03-23T00:38:34;4.32;;;2.58;;
54953;SDS011;40855;51.072;5.402;2023-03-23T00:41:00;4.97;;;2.30;;
54953;SDS011;40855;51.072;5.402;2023-03-23T00:43:27;4.10;;;2.13;;
54953;SDS011;40855;51.072;5.402;2023-03-23T00:45:54;5.70;;;2.30;;
54953;SDS011;40855;51.072;5.402;2023-03-23T00:48:20;2.30;;;2.08;;
54953;SDS011;40855;51.072;5.402;2023-03-23T00:50:47;3.97;;;2.35;;
54953;SDS011;40855;51.072;5.402;2023-03-23T00:53:14;2.85;;;2.10;;
54953;SDS011;40855;51.072;5.402;2023-03-23T00:55:41;4.93;;;2.22;;
54953;SDS011;40855;51.072;5.402;2023-03-23T00:58:08;2.58;;;2.30;;
54953;SDS011;40855;51.072;5.402;2023-03-23T01:00:34;3.17;;;1.98;;
54953;SDS011;40855;51.072;5.402;2023-03-23T01:03:00;4.88;;;2.70;;
54953;SDS011;40855;51.072;5.402;2023-03-23T01:05:26;3.00;;;2.58;;
54953;SDS011;40855;51.072;5.402;2023-03-23T01:07:57;3.90;;;2.53;;
54953;SDS011;40855;51.072;5.402;2023-03-23T01:10:23;5.05;;;2.60;;
54953;SDS011;40855;51.072;5.402;2023-03-23T01:12:51;4.63;;;2.42;;
54953;SDS011;40855;51.072;5.402;2023-03-23T01:15:17;5.82;;;2.55;;
54953;SDS011;40855;51.072;5.402;2023-03-23T01:17:44;2.78;;;2.20;;
54953;SDS011;40855;51.072;5.402;2023-03-23T01:20:13;4.60;;;2.78;;
54953;SDS011;40855;51.072;5.402;2023-03-23T01:22:40;5.18;;;2.50;;
54953;SDS011;40855;51.072;5.402;2023-03-23T01:25:07;5.53;;;3.00;;
54953;SDS011;40855;51.072;5.402;2023-03-23T01:27:35;4.13;;;2.85;;
54953;SDS011;40855;51.072;5.402;2023-03-23T01:30:01;3.03;;;2.83;;
54953;SDS011;40855;51.072;5.402;2023-03-23T01:32:28;2.47;;;2.15;;
54953;SDS011;40855;51.072;5.402;2023-03-23T01:34:54;2.95;;;2.65;;
54953;SDS011;40855;51.072;5.402;2023-03-23T01:37:20;2.85;;;2.40;;
54953;SDS011;40855;51.072;5.402;2023-03-23T01:39:51;2.85;;;2.45;;
54953;SDS011;40855;51.072;5.402;2023-03-23T01:42:21;5.85;;;2.72;;
54953;SDS011;40855;51.072;5.402;2023-03-23T01:47:16;4.60;;;3.08;;
54953;SDS011;40855;51.072;5.402;2023-03-23T01:49:48;6.22;;;3.35;;
54953;SDS011;40855;51.072;5.402;2023-03-23T01:52:19;3.83;;;2.90;;
54953;SDS011;40855;51.072;5.402;2023-03-23T01:54:52;3.33;;;3.03;;
54953;SDS011;40855;51.072;5.402;2023-03-23T01:57:20;4.32;;;2.92;;
54953;SDS011;40855;51.072;5.402;2023-03-23T01:59:49;5.35;;;3.20;;
54953;SDS011;40855;51.072;5.402;2023-03-23T02:02:17;3.15;;;2.85;;
54953;SDS011;40855;51.072;5.402;2023-03-23T02:04:45;3.80;;;3.28;;
54953;SDS011;40855;51.072;5.402;2023-03-23T02:07:11;3.80;;;3.15;;
54953;SDS011;40855;51.072;5.402;2023-03-23T02:09:40;6.82;;;2.60;;
54953;SDS011;40855;51.072;5.402;2023-03-23T02:12:06;5.72;;;2.88;;
54953;SDS011;40855;51.072;5.402;2023-03-23T02:14:31;3.97;;;2.70;;
54953;SDS011;40855;51.072;5.402;2023-03-23T02:17:05;4.97;;;2.83;;
54953;SDS011;40855;51.072;5.402;2023-03-23T02:31:09;3.40;;;2.83;;
54953;SDS011;40855;51.072;5.402;2023-03-23T02:42:16;3.40;;;3.00;;
54953;SDS011;40855;51.072;5.402;2023-03-23T02:44:48;3.30;;;3.00;;
54953;SDS011;40855;51.072;5.402;2023-03-23T02:47:19;7.50;;;3.10;;
54953;SDS011;40855;51.072;5.402;2023-03-23T02:49:48;4.07;;;3.17;;
54953;SDS011;40855;51.072;5.402;2023-03-23T02:52:19;4.50;;;2.83;;
54953;SDS011;40855;51.072;5.402;2023-03-23T02:54:48;4.15;;;2.90;;
54953;SDS011;40855;51.072;5.402;2023-03-23T02:57:16;5.20;;;3.00;;
54953;SDS011;40855;51.072;5.402;2023-03-23T02:59:43;3.95;;;2.95;;
54953;SDS011;40855;51.072;5.402;2023-03-23T03:02:14;2.85;;;2.45;;
54953;SDS011;40855;51.072;5.402;2023-03-23T03:04:47;3.78;;;3.08;;
54953;SDS011;40855;51.072;5.402;2023-03-23T03:07:30;3.28;;;2.70;;
54953;SDS011;40855;51.072;5.402;2023-03-23T03:10:06;4.63;;;2.50;;
54953;SDS011;40855;51.072;5.402;2023-03-23T03:15:31;5.22;;;2.72;;
54953;SDS011;40855;51.072;5.402;2023-03-23T03:18:15;5.10;;;2.90;;
54953;SDS011;40855;51.072;5.402;2023-03-23T03:20:54;2.70;;;2.50;;
54953;SDS011;40855;51.072;5.402;2023-03-23T03:23:24;2.63;;;2.42;;
54953;SDS011;40855;51.072;5.402;2023-03-23T03:25:52;4.07;;;2.50;;
54953;SDS011;40855;51.072;5.402;2023-03-23T03:28:22;5.47;;;2.92;;
54953;SDS011;40855;51.072;5.402;2023-03-23T03:30:55;7.95;;;2.83;;
54953;SDS011;40855;51.072;5.402;2023-03-23T03:33:26;4.05;;;2.70;;
54953;SDS011;40855;51.072;5.402;2023-03-23T03:35:56;4.22;;;2.72;;
54953;SDS011;40855;51.072;5.402;2023-03-23T03:38:24;4.30;;;2.72;;
54953;SDS011;40855;51.072;5.402;2023-03-23T03:40:50;2.65;;;2.45;;
54953;SDS011;40855;51.072;5.402;2023-03-23T03:43:16;3.90;;;2.53;;
54953;SDS011;40855;51.072;5.402;2023-03-23T03:45:42;3.50;;;2.15;;
54953;SDS011;40855;51.072;5.402;2023-03-23T03:48:07;4.10;;;2.30;;
54953;SDS011;40855;51.072;5.402;2023-03-23T03:50:33;3.25;;;1.85;;
54953;SDS011;40855;51.072;5.402;2023-03-23T03:52:59;3.22;;;1.90;;
54953;SDS011;40855;51.072;5.402;2023-03-23T03:55:25;5.43;;;2.22;;
54953;SDS011;40855;51.072;5.402;2023-03-23T03:57:53;5.78;;;2.35;;
54953;SDS011;40855;51.072;5.402;2023-03-23T04:00:22;4.10;;;2.17;;
54953;SDS011;40855;51.072;5.402;2023-03-23T04:02:49;3.25;;;2.22;;
54953;SDS011;40855;51.072;5.402;2023-03-23T04:05:20;4.50;;;2.05;;
54953;SDS011;40855;51.072;5.402;2023-03-23T04:07:47;6.70;;;1.90;;
54953;SDS011;40855;51.072;5.402;2023-03-23T04:10:16;3.33;;;2.30;;
54953;SDS011;40855;51.072;5.402;2023-03-23T04:12:44;6.55;;;2.17;;
54953;SDS011;40855;51.072;5.402;2023-03-23T04:15:11;4.70;;;1.80;;
54953;SDS011;40855;51.072;5.402;2023-03-23T04:17:36;2.10;;;1.90;;
54953;SDS011;40855;51.072;5.402;2023-03-23T04:20:03;5.57;;;1.70;;
54953;SDS011;40855;51.072;5.402;2023-03-23T04:22:38;4.13;;;1.95;;
54953;SDS011;40855;51.072;5.402;2023-03-23T04:25:04;4.43;;;2.10;;
54953;SDS011;40855;51.072;5.402;2023-03-23T04:27:31;3.55;;;2.00;;
54953;SDS011;40855;51.072;5.402;2023-03-23T04:29:57;3.55;;;1.88;;
54953;SDS011;40855;51.072;5.402;2023-03-23T04:32:25;2.42;;;1.90;;
54953;SDS011;40855;51.072;5.402;2023-03-23T04:34:53;10.18;;;2.67;;
54953;SDS011;40855;51.072;5.402;2023-03-23T04:37:24;6.75;;;2.03;;
54953;SDS011;40855;51.072;5.402;2023-03-23T04:39:53;2.08;;;1.55;;
54953;SDS011;40855;51.072;5.402;2023-03-23T04:42:32;4.53;;;1.77;;
54953;SDS011;40855;51.072;5.402;2023-03-23T04:44:58;3.90;;;1.60;;
54953;SDS011;40855;51.072;5.402;2023-03-23T04:47:24;3.40;;;1.70;;
54953;SDS011;40855;51.072;5.402;2023-03-23T04:49:57;5.65;;;1.98;;
54953;SDS011;40855;51.072;5.402;2023-03-23T04:52:27;3.63;;;1.85;;
54953;SDS011;40855;51.072;5.402;2023-03-23T04:54:56;4.13;;;1.55;;
54953;SDS011;40855;51.072;5.402;2023-03-23T04:57:22;4.30;;;1.73;;
54953;SDS011;40855;51.072;5.402;2023-03-23T04:59:48;3.63;;;1.42;;
54953;SDS011;40855;51.072;5.402;2023-03-23T05:02:14;6.15;;;1.63;;
54953;SDS011;40855;51.072;5.402;2023-03-23T05:04:42;3.53;;;1.65;;
54953;SDS011;40855;51.072;5.402;2023-03-23T05:07:08;9.88;;;1.92;;
54953;SDS011;40855;51.072;5.402;2023-03-23T05:09:35;2.55;;;1.58;;
54953;SDS011;40855;51.072;5.402;2023-03-23T05:12:08;6.22;;;1.60;;
54953;SDS011;40855;51.072;5.402;2023-03-23T05:14:35;9.77;;;1.50;;
54953;SDS011;40855;51.072;5.402;2023-03-23T05:17:05;3.58;;;1.40;;
54953;SDS011;40855;51.072;5.402;2023-03-23T05:19:32;5.32;;;1.70;;
54953;SDS011;40855;51.072;5.402;2023-03-23T05:21:58;5.00;;;1.35;;
54953;SDS011;40855;51.072;5.402;2023-03-23T05:24:28;10.38;;;1.75;;
54953;SDS011;40855;51.072;5.402;2023-03-23T05:26:56;5.28;;;1.40;;
54953;SDS011;40855;51.072;5.402;2023-03-23T05:29:22;8.68;;;1.83;;
54953;SDS011;40855;51.072;5.402;2023-03-23T05:31:48;6.18;;;1.30;;
54953;SDS011;40855;51.072;5.402;2023-03-23T05:34:14;4.85;;;1.52;;
54953;SDS011;40855;51.072;5.402;2023-03-23T05:36:41;7.45;;;1.50;;
54953;SDS011;40855;51.072;5.402;2023-03-23T05:39:08;12.65;;;1.60;;
54953;SDS011;40855;51.072;5.402;2023-03-23T05:41:35;7.43;;;1.70;;
54953;SDS011;40855;51.072;5.402;2023-03-23T05:44:01;4.70;;;1.52;;
54953;SDS011;40855;51.072;5.402;2023-03-23T05:46:27;6.20;;;1.27;;
54953;SDS011;40855;51.072;5.402;2023-03-23T05:48:53;5.72;;;1.38;;
54953;SDS011;40855;51.072;5.402;2023-03-23T05:51:19;4.63;;;1.13;;
54953;SDS011;40855;51.072;5.402;2023-03-23T05:53:45;3.75;;;0.98;;
54953;SDS011;40855;51.072;5.402;2023-03-23T05:56:10;4.63;;;1.48;;
54953;SDS011;40855;51.072;5.402;2023-03-23T05:58:37;7.07;;;1.30;;
54953;SDS011;40855;51.072;5.402;2023-03-23T06:01:06;6.50;;;1.55;;
54953;SDS011;40855;51.072;5.402;2023-03-23T06:03:32;3.33;;;1.25;;
54953;SDS011;40855;51.072;5.402;2023-03-23T06:05:58;2.45;;;1.00;;
54953;SDS011;40855;51.072;5.402;2023-03-23T06:08:24;5.22;;;1.27;;
54953;SDS011;40855;51.072;5.402;2023-03-23T06:10:49;4.85;;;1.42;;
54953;SDS011;40855;51.072;5.402;2023-03-23T06:13:15;4.50;;;1.33;;
54953;SDS011;40855;51.072;5.402;2023-03-23T06:15:41;3.90;;;1.35;;
54953;SDS011;40855;51.072;5.402;2023-03-23T06:18:07;3.85;;;1.58;;
54953;SDS011;40855;51.072;5.402;2023-03-23T06:20:33;4.38;;;1.48;;
54953;SDS011;40855;51.072;5.402;2023-03-23T06:23:00;3.35;;;1.33;;
54953;SDS011;40855;51.072;5.402;2023-03-23T06:25:26;6.03;;;1.52;;
54953;SDS011;40855;51.072;5.402;2023-03-23T06:27:52;3.83;;;1.40;;
54953;SDS011;40855;51.072;5.402;2023-03-23T06:30:18;3.67;;;1.17;;
54953;SDS011;40855;51.072;5.402;2023-03-23T06:32:44;4.20;;;1.17;;
54953;SDS011;40855;51.072;5.402;2023-03-23T06:35:12;7.15;;;2.08;;
54953;SDS011;40855;51.072;5.402;2023-03-23T06:37:38;6.55;;;1.52;;
54953;SDS011;40855;51.072;5.402;2023-03-23T06:40:04;4.53;;;1.58;;
54953;SDS011;40855;51.072;5.402;2023-03-23T06:42:35;10.43;;;1.75;;
54953;SDS011;40855;51.072;5.402;2023-03-23T06:45:02;3.83;;;1.30;;
54953;SDS011;40855;51.072;5.402;2023-03-23T06:47:29;7.55;;;2.08;;
54953;SDS011;40855;51.072;5.402;2023-03-23T06:49:55;3.05;;;1.77;;
54953;SDS011;40855;51.072;5.402;2023-03-23T06:52:22;3.45;;;1.17;;
54953;SDS011;40855;51.072;5.402;2023-03-23T06:54:49;10.90;;;1.73;;
54953;SDS011;40855;51.072;5.402;2023-03-23T06:57:15;5.03;;;1.40;;
54953;SDS011;40855;51.072;5.402;2023-03-23T06:59:42;4.55;;;1.48;;
54953;SDS011;40855;51.072;5.402;2023-03-23T07:02:09;3.25;;;1.10;;
54953;SDS011;40855;51.072;5.402;2023-03-23T07:04:36;5.85;;;1.70;;
54953;SDS011;40855;51.072;5.402;2023-03-23T07:07:04;8.93;;;1.58;;
54953;SDS011;40855;51.072;5.402;2023-03-23T07:09:31;6.00;;;1.73;;
54953;SDS011;40855;51.072;5.402;2023-03-23T07:11:57;3.70;;;1.77;;
54953;SDS011;40855;51.072;5.402;2023-03-23T07:14:23;5.90;;;1.13;;
54953;SDS011;40855;51.072;5.402;2023-03-23T07:16:49;3.33;;;1.00;;
54953;SDS011;40855;51.072;5.402;2023-03-23T07:19:15;5.82;;;1.33;;
54953;SDS011;40855;51.072;5.402;2023-03-23T07:21:41;5.10;;;1.70;;
54953;SDS011;40855;51.072;5.402;2023-03-23T07:24:10;5.20;;;1.40;;
54953;SDS011;40855;51.072;5.402;2023-03-23T07:26:39;9.20;;;1.40;;
54953;SDS011;40855;51.072;5.402;2023-03-23T07:29:06;6.35;;;1.27;;
54953;SDS011;40855;51.072;5.402;2023-03-23T07:31:32;6.90;;;1.65;;
54953;SDS011;40855;51.072;5.402;2023-03-23T07:33:58;4.97;;;1.40;;
54953;SDS011;40855;51.072;5.402;2023-03-23T07:36:23;3.55;;;1.20;;
54953;SDS011;40855;51.072;5.402;2023-03-23T07:38:51;5.30;;;1.55;;
54953;SDS011;40855;51.072;5.402;2023-03-23T07:41:16;3.40;;;1.10;;
54953;SDS011;40855;51.072;5.402;2023-03-23T07:43:42;3.92;;;0.98;;
54953;SDS011;40855;51.072;5.402;2023-03-23T07:46:08;2.63;;;1.20;;
54953;SDS011;40855;51.072;5.402;2023-03-23T07:48:34;8.93;;;2.03;;
54953;SDS011;40855;51.072;5.402;2023-03-23T07:51:01;7.60;;;1.40;;
54953;SDS011;40855;51.072;5.402;2023-03-23T07:53:27;8.60;;;1.30;;
54953;SDS011;40855;51.072;5.402;2023-03-23T07:55:53;9.40;;;1.67;;
54953;SDS011;40855;51.072;5.402;2023-03-23T07:58:18;5.45;;;1.30;;
54953;SDS011;40855;51.072;5.402;2023-03-23T08:00:48;6.90;;;1.33;;
54953;SDS011;40855;51.072;5.402;2023-03-23T08:03:14;12.07;;;1.20;;
54953;SDS011;40855;51.072;5.402;2023-03-23T08:05:41;3.88;;;1.65;;
54953;SDS011;40855;51.072;5.402;2023-03-23T08:08:08;7.30;;;1.27;;
54953;SDS011;40855;51.072;5.402;2023-03-23T08:10:34;1.92;;;0.98;;
54953;SDS011;40855;51.072;5.402;2023-03-23T08:13:01;2.13;;;0.73;;
54953;SDS011;40855;51.072;5.402;2023-03-23T08:15:27;8.95;;;0.93;;
54953;SDS011;40855;51.072;5.402;2023-03-23T08:17:53;2.40;;;0.50;;
54953;SDS011;40855;51.072;5.402;2023-03-23T08:20:20;6.75;;;0.63;;
54953;SDS011;40855;51.072;5.402;2023-03-23T08:22:54;1.92;;;0.35;;
54953;SDS011;40855;51.072;5.402;2023-03-23T08:25:22;5.53;;;0.37;;
54953;SDS011;40855;51.072;5.402;2023-03-23T08:27:49;0.65;;;0.30;;
54953;SDS011;40855;51.072;5.402;2023-03-23T08:30:16;2.47;;;0.40;;
54953;SDS011;40855;51.072;5.402;2023-03-23T08:32:45;1.48;;;0.30;;
54953;SDS011;40855;51.072;5.402;2023-03-23T08:35:11;0.43;;;0.32;;
54953;SDS011;40855;51.072;5.402;2023-03-23T08:37:39;0.93;;;0.32;;
54953;SDS011;40855;51.072;5.402;2023-03-23T08:40:07;1.30;;;0.40;;
54953;SDS011;40855;51.072;5.402;2023-03-23T08:42:36;1.77;;;0.40;;
54953;SDS011;40855;51.072;5.402;2023-03-23T08:45:04;2.45;;;0.30;;
54953;SDS011;40855;51.072;5.402;2023-03-23T08:47:32;0.98;;;0.50;;
54953;SDS011;40855;51.072;5.402;2023-03-23T08:49:58;2.83;;;0.30;;
54953;SDS011;40855;51.072;5.402;2023-03-23T08:52:25;3.35;;;0.40;;
54953;SDS011;40855;51.072;5.402;2023-03-23T08:54:50;2.60;;;0.47;;
54953;SDS011;40855;51.072;5.402;2023-03-23T08:57:16;4.40;;;0.30;;
54953;SDS011;40855;51.072;5.402;2023-03-23T08:59:43;2.08;;;0.47;;
54953;SDS011;40855;51.072;5.402;2023-03-23T09:02:09;3.90;;;0.55;;
54953;SDS011;40855;51.072;5.402;2023-03-23T09:04:37;3.65;;;0.50;;
54953;SDS011;40855;51.072;5.402;2023-03-23T09:07:04;1.10;;;0.50;;
54953;SDS011;40855;51.072;5.402;2023-03-23T09:09:30;2.40;;;0.70;;
54953;SDS011;40855;51.072;5.402;2023-03-23T09:11:55;2.50;;;0.43;;
54953;SDS011;40855;51.072;5.402;2023-03-23T09:14:21;3.63;;;0.80;;
54953;SDS011;40855;51.072;5.402;2023-03-23T09:16:46;2.47;;;0.60;;
54953;SDS011;40855;51.072;5.402;2023-03-23T09:19:12;0.88;;;0.50;;
54953;SDS011;40855;51.072;5.402;2023-03-23T09:21:38;3.47;;;0.60;;
54953;SDS011;40855;51.072;5.402;2023-03-23T09:24:04;2.70;;;0.80;;
54953;SDS011;40855;51.072;5.402;2023-03-23T09:26:30;0.70;;;0.50;;
54953;SDS011;40855;51.072;5.402;2023-03-23T09:28:57;5.15;;;0.77;;
54953;SDS011;40855;51.072;5.402;2023-03-23T09:31:23;1.42;;;0.70;;
54953;SDS011;40855;51.072;5.402;2023-03-23T09:33:51;1.92;;;0.70;;
54953;SDS011;40855;51.072;5.402;2023-03-23T09:36:20;2.40;;;0.60;;
54953;SDS011;40855;51.072;5.402;2023-03-23T09:38:49;1.80;;;0.65;;
54953;SDS011;40855;51.072;5.402;2023-03-23T09:44:05;2.20;;;0.65;;
54953;SDS011;40855;51.072;5.402;2023-03-23T09:49:14;3.90;;;0.80;;
54953;SDS011;40855;51.072;5.402;2023-03-23T09:51:49;1.75;;;0.82;;
54953;SDS011;40855;51.072;5.402;2023-03-23T09:54:22;2.30;;;0.80;;
54953;SDS011;40855;51.072;5.402;2023-03-23T09:56:53;4.90;;;1.10;;
54953;SDS011;40855;51.072;5.402;2023-03-23T10:01:53;1.92;;;1.00;;
54953;SDS011;40855;51.072;5.402;2023-03-23T10:04:28;1.98;;;1.30;;
54953;SDS011;40855;51.072;5.402;2023-03-23T10:07:08;1.98;;;1.33;;
54953;SDS011;40855;51.072;5.402;2023-03-23T10:09:38;4.28;;;1.80;;
54953;SDS011;40855;51.072;5.402;2023-03-23T10:14:55;3.53;;;1.40;;
54953;SDS011;40855;51.072;5.402;2023-03-23T10:23:01;5.38;;;0.98;;
54953;SDS011;40855;51.072;5.402;2023-03-23T10:25:35;5.32;;;1.08;;
54953;SDS011;40855;51.072;5.402;2023-03-23T10:28:12;3.88;;;0.90;;
54953;SDS011;40855;51.072;5.402;2023-03-23T10:30:46;8.32;;;1.17;;
54953;SDS011;40855;51.072;5.402;2023-03-23T10:33:20;3.30;;;0.73;;
54953;SDS011;40855;51.072;5.402;2023-03-23T10:41:25;3.33;;;1.02;;
54953;SDS011;40855;51.072;5.402;2023-03-23T10:43:51;3.75;;;1.20;;
54953;SDS011;40855;51.072;5.402;2023-03-23T10:49:06;4.40;;;1.10;;
54953;SDS011;40855;51.072;5.402;2023-03-23T10:51:37;1.65;;;1.00;;
54953;SDS011;40855;51.072;5.402;2023-03-23T10:54:07;4.18;;;1.00;;
54953;SDS011;40855;51.072;5.402;2023-03-23T10:59:18;1.85;;;0.73;;
54953;SDS011;40855;51.072;5.402;2023-03-23T11:01:55;1.90;;;0.90;;
54953;SDS011;40855;51.072;5.402;2023-03-23T11:04:24;2.58;;;1.00;;
54953;SDS011;40855;51.072;5.402;2023-03-23T11:06:51;5.05;;;1.02;;
54953;SDS011;40855;51.072;5.402;2023-03-23T11:09:20;1.45;;;1.15;;
54953;SDS011;40855;51.072;5.402;2023-03-23T11:11:57;3.83;;;1.10;;
54953;SDS011;40855;51.072;5.402;2023-03-23T11:14:33;1.33;;;0.85;;
54953;SDS011;40855;51.072;5.402;2023-03-23T11:17:04;3.15;;;1.13;;
54953;SDS011;40855;51.072;5.402;2023-03-23T11:19:35;3.63;;;1.08;;
54953;SDS011;40855;51.072;5.402;2023-03-23T11:22:12;2.60;;;0.93;;
54953;SDS011;40855;51.072;5.402;2023-03-23T11:24:46;2.35;;;1.15;;
54953;SDS011;40855;51.072;5.402;2023-03-23T11:27:15;2.80;;;1.58;;
54953;SDS011;40855;51.072;5.402;2023-03-23T11:29:46;1.63;;;1.30;;
54953;SDS011;40855;51.072;5.402;2023-03-23T11:32:15;2.97;;;1.50;;
54953;SDS011;40855;51.072;5.402;2023-03-23T11:34:46;2.92;;;1.30;;
54953;SDS011;40855;51.072;5.402;2023-03-23T11:37:24;3.47;;;1.55;;
54953;SDS011;40855;51.072;5.402;2023-03-23T11:42:43;5.75;;;1.55;;
54953;SDS011;40855;51.072;5.402;2023-03-23T11:50:28;3.72;;;1.58;;
54953;SDS011;40855;51.072;5.402;2023-03-23T12:00:54;4.40;;;1.45;;
54953;SDS011;40855;51.072;5.402;2023-03-23T12:11:18;4.70;;;1.50;;
54953;SDS011;40855;51.072;5.402;2023-03-23T12:19:38;6.95;;;1.95;;
54953;SDS011;40855;51.072;5.402;2023-03-23T12:28:10;4.53;;;1.55;;
54953;SDS011;40855;51.072;5.402;2023-03-23T12:31:01;6.25;;;2.15;;
54953;SDS011;40855;51.072;5.402;2023-03-23T12:36:30;7.95;;;1.83;;
54953;SDS011;40855;51.072;5.402;2023-03-23T12:42:03;4.78;;;2.15;;
54953;SDS011;40855;51.072;5.402;2023-03-23T12:44:52;6.03;;;1.88;;
54953;SDS011;40855;51.072;5.402;2023-03-23T12:47:35;4.97;;;1.70;;
54953;SDS011;40855;51.072;5.402;2023-03-23T12:56:08;6.97;;;1.73;;
54953;SDS011;40855;51.072;5.402;2023-03-23T12:58:47;5.80;;;2.17;;
54953;SDS011;40855;51.072;5.402;2023-03-23T13:03:55;5.10;;;1.95;;
54953;SDS011;40855;51.072;5.402;2023-03-23T13:09:10;7.75;;;1.90;;
54953;SDS011;40855;51.072;5.402;2023-03-23T13:11:42;5.32;;;1.67;;
54953;SDS011;40855;51.072;5.402;2023-03-23T13:19:28;6.03;;;0.93;;
54953;SDS011;40855;51.072;5.402;2023-03-23T13:22:01;4.88;;;1.42;;
54953;SDS011;40855;51.072;5.402;2023-03-23T13:24:39;4.05;;;1.20;;
54953;SDS011;40855;51.072;5.402;2023-03-23T13:27:12;5.38;;;1.38;;
54953;SDS011;40855;51.072;5.402;2023-03-23T13:29:43;8.55;;;1.98;;
54953;SDS011;40855;51.072;5.402;2023-03-23T13:32:12;6.88;;;1.45;;
54953;SDS011;40855;51.072;5.402;2023-03-23T13:34:41;5.53;;;1.92;;
54953;SDS011;40855;51.072;5.402;2023-03-23T13:37:11;5.60;;;1.73;;
54953;SDS011;40855;51.072;5.402;2023-03-23T13:42:19;10.32;;;1.95;;
54953;SDS011;40855;51.072;5.402;2023-03-23T13:49:58;7.55;;;1.80;;
54953;SDS011;40855;51.072;5.402;2023-03-23T14:11:02;5.03;;;1.58;;
54953;SDS011;40855;51.072;5.402;2023-03-23T14:13:59;7.63;;;1.70;;
54953;SDS011;40855;51.072;5.402;2023-03-23T14:16:38;7.00;;;1.77;;
54953;SDS011;40855;51.072;5.402;2023-03-23T14:21:51;7.57;;;1.88;;
54953;SDS011;40855;51.072;5.402;2023-03-23T14:24:23;4.07;;;1.80;;
54953;SDS011;40855;51.072;5.402;2023-03-23T14:26:52;7.03;;;2.00;;
54953;SDS011;40855;51.072;5.402;2023-03-23T14:29:26;8.75;;;1.83;;
54953;SDS011;40855;51.072;5.402;2023-03-23T14:31:55;7.22;;;2.03;;
54953;SDS011;40855;51.072;5.402;2023-03-23T14:34:24;10.20;;;2.22;;
54953;SDS011;40855;51.072;5.402;2023-03-23T14:36:53;6.47;;;1.80;;
54953;SDS011;40855;51.072;5.402;2023-03-23T14:39:28;4.10;;;1.73;;
54953;SDS011;40855;51.072;5.402;2023-03-23T14:44:33;6.85;;;2.28;;
54953;SDS011;40855;51.072;5.402;2023-03-23T14:47:05;8.02;;;2.10;;
54953;SDS011;40855;51.072;5.402;2023-03-23T14:49:41;8.23;;;2.42;;
54953;SDS011;40855;51.072;5.402;2023-03-23T14:54:34;8.23;;;2.35;;
54953;SDS011;40855;51.072;5.402;2023-03-23T14:57:05;9.75;;;2.50;;
54953;SDS011;40855;51.072;5.402;2023-03-23T15:00:04;6.45;;;2.30;;
54953;SDS011;40855;51.072;5.402;2023-03-23T15:02:36;5.97;;;2.38;;
54953;SDS011;40855;51.072;5.402;2023-03-23T15:05:12;8.20;;;2.20;;
54953;SDS011;40855;51.072;5.402;2023-03-23T15:07:43;10.27;;;2.25;;
54953;SDS011;40855;51.072;5.402;2023-03-23T15:10:14;7.30;;;1.33;;
54953;SDS011;40855;51.072;5.402;2023-03-23T15:12:43;7.88;;;1.58;;
54953;SDS011;40855;51.072;5.402;2023-03-23T15:15:16;5.10;;;1.35;;
54953;SDS011;40855;51.072;5.402;2023-03-23T15:17:50;6.50;;;1.75;;
54953;SDS011;40855;51.072;5.402;2023-03-23T15:20:21;7.18;;;2.10;;
54953;SDS011;40855;51.072;5.402;2023-03-23T15:22:52;6.07;;;1.27;;
54953;SDS011;40855;51.072;5.402;2023-03-23T15:25:36;7.63;;;1.67;;
54953;SDS011;40855;51.072;5.402;2023-03-23T15:28:19;7.15;;;1.65;;
54953;SDS011;40855;51.072;5.402;2023-03-23T15:30:59;6.07;;;1.88;;
54953;SDS011;40855;51.072;5.402;2023-03-23T15:33:26;13.95;;;1.77;;
54953;SDS011;40855;51.072;5.402;2023-03-23T15:35:58;7.47;;;2.10;;
54953;SDS011;40855;51.072;5.402;2023-03-23T15:38:33;4.57;;;2.22;;
54953;SDS011;40855;51.072;5.402;2023-03-23T15:41:05;10.20;;;2.47;;
54953;SDS011;40855;51.072;5.402;2023-03-23T15:43:36;6.82;;;2.22;;
54953;SDS011;40855;51.072;5.402;2023-03-23T15:51:34;9.32;;;3.28;;
54953;SDS011;40855;51.072;5.402;2023-03-23T15:54:00;6.88;;;2.38;;
54953;SDS011;40855;51.072;5.402;2023-03-23T15:56:26;6.07;;;2.83;;
54953;SDS011;40855;51.072;5.402;2023-03-23T15:58:54;7.47;;;2.75;;
54953;SDS011;40855;51.072;5.402;2023-03-23T16:01:25;9.50;;;2.65;;
54953;SDS011;40855;51.072;5.402;2023-03-23T16:03:54;8.23;;;2.78;;
54953;SDS011;40855;51.072;5.402;2023-03-23T16:06:24;9.27;;;2.17;;
54953;SDS011;40855;51.072;5.402;2023-03-23T16:08:52;9.55;;;2.97;;
54953;SDS011;40855;51.072;5.402;2023-03-23T16:11:18;9.93;;;2.65;;
54953;SDS011;40855;51.072;5.402;2023-03-23T16:13:44;11.40;;;2.95;;
54953;SDS011;40855;51.072;5.402;2023-03-23T16:16:14;6.93;;;2.47;;
54953;SDS011;40855;51.072;5.402;2023-03-23T16:18:42;6.63;;;2.40;;
54953;SDS011;40855;51.072;5.402;2023-03-23T16:21:08;11.38;;;2.33;;
54953;SDS011;40855;51.072;5.402;2023-03-23T16:23:34;13.10;;;2.92;;
54953;SDS011;40855;51.072;5.402;2023-03-23T16:25:59;9.20;;;2.08;;
54953;SDS011;40855;51.072;5.402;2023-03-23T16:28:25;7.78;;;2.17;;
54953;SDS011;40855;51.072;5.402;2023-03-23T16:30:51;10.32;;;2.30;;
54953;SDS011;40855;51.072;5.402;2023-03-23T16:33:16;8.75;;;2.33;;
54953;SDS011;40855;51.072;5.402;2023-03-23T16:35:42;8.75;;;2.38;;
54953;SDS011;40855;51.072;5.402;2023-03-23T16:38:14;8.45;;;2.00;;
54953;SDS011;40855;51.072;5.402;2023-03-23T16:40:42;7.57;;;1.75;;
54953;SDS011;40855;51.072;5.402;2023-03-23T16:43:09;8.45;;;2.08;;
54953;SDS011;40855;51.072;5.402;2023-03-23T16:45:39;12.60;;;2.50;;
54953;SDS011;40855;51.072;5.402;2023-03-23T16:48:07;7.63;;;2.15;;
54953;SDS011;40855;51.072;5.402;2023-03-23T16:50:33;7.38;;;2.10;;
54953;SDS011;40855;51.072;5.402;2023-03-23T16:53:00;11.45;;;2.60;;
54953;SDS011;40855;51.072;5.402;2023-03-23T16:55:26;9.25;;;2.30;;
54953;SDS011;40855;51.072;5.402;2023-03-23T16:57:53;9.65;;;2.00;;
54953;SDS011;40855;51.072;5.402;2023-03-23T17:00:19;9.63;;;2.17;;
54953;SDS011;40855;51.072;5.402;2023-03-23T17:02:46;5.70;;;1.90;;
54953;SDS011;40855;51.072;5.402;2023-03-23T17:05:16;6.40;;;2.15;;
54953;SDS011;40855;51.072;5.402;2023-03-23T17:07:46;9.10;;;1.60;;
54953;SDS011;40855;51.072;5.402;2023-03-23T17:10:13;6.53;;;1.98;;
54953;SDS011;40855;51.072;5.402;2023-03-23T17:12:39;7.07;;;2.13;;
54953;SDS011;40855;51.072;5.402;2023-03-23T17:15:06;9.75;;;2.10;;
54953;SDS011;40855;51.072;5.402;2023-03-23T17:17:33;7.47;;;1.80;;
54953;SDS011;40855;51.072;5.402;2023-03-23T17:19:59;10.35;;;2.30;;
54953;SDS011;40855;51.072;5.402;2023-03-23T17:22:25;4.80;;;1.77;;
54953;SDS011;40855;51.072;5.402;2023-03-23T17:24:51;13.82;;;1.92;;
54953;SDS011;40855;51.072;5.402;2023-03-23T17:27:18;6.30;;;1.90;;
54953;SDS011;40855;51.072;5.402;2023-03-23T17:29:45;11.48;;;1.90;;